createdAt,value
2018-12-30T00:00:25.483Z,101130.15
2018-12-30T00:03:00.951Z,101125.52
2018-12-30T00:05:32.381Z,101129.77
2018-12-30T00:08:07.244Z,101124.39
2018-12-30T00:10:42.334Z,101120.52
2018-12-30T00:13:16.162Z,101113.76
2018-12-30T00:15:48.999Z,101107.14
2018-12-30T00:18:30.296Z,101113.38
2018-12-30T00:21:08.811Z,101113.27
2018-12-30T00:23:43.157Z,101106.77
2018-12-30T00:26:09.812Z,101101.34
2018-12-30T00:28:47.194Z,101103.06
2018-12-30T00:31:30.477Z,101106.61
2018-12-30T00:34:06.202Z,101103.44
2018-12-30T00:36:41.786Z,101097.69
2018-12-30T00:39:13.859Z,101100.48
2018-12-30T00:41:45.204Z,101100.70
2018-12-30T00:44:17.021Z,101108.02
2018-12-30T00:46:48.436Z,101107.75
2018-12-30T00:49:19.561Z,101114.20
2018-12-30T00:51:51.954Z,101105.01
2018-12-30T00:54:23.326Z,101099.85
2018-12-30T00:56:57.436Z,101103.02
2018-12-30T00:59:29.614Z,101104.26
2018-12-30T01:02:01.615Z,101098.83
2018-12-30T01:04:33.094Z,101105.28
2018-12-30T01:07:05.011Z,101105.49
2018-12-30T01:09:36.612Z,101100.71
2018-12-30T01:12:08.277Z,101102.27
2018-12-30T01:14:42.592Z,101099.69
2018-12-30T01:17:14.779Z,101091.74
2018-12-30T01:19:51.012Z,101090.88
2018-12-30T01:22:23.238Z,101090.50
2018-12-30T01:24:54.267Z,101084.36
2018-12-30T01:27:26.488Z,101084.52
2018-12-30T01:29:57.526Z,101086.83
2018-12-30T01:32:28.528Z,101085.05
2018-12-30T01:34:59.724Z,101082.09
2018-12-30T01:37:30.683Z,101080.70
2018-12-30T01:40:01.613Z,101073.12
2018-12-30T01:42:36.487Z,101079.19
2018-12-30T01:45:07.344Z,101077.68
2018-12-30T01:47:38.569Z,101078.48
2018-12-30T01:50:11.459Z,101080.89
2018-12-30T01:52:42.810Z,101069.02
2018-12-30T01:55:14.408Z,101069.40
2018-12-30T01:57:46.847Z,101064.79
2018-12-30T02:00:18.440Z,101068.44
2018-12-30T02:02:49.536Z,101061.14
2018-12-30T02:05:21.165Z,101054.37
2018-12-30T02:07:53.200Z,101058.19
2018-12-30T02:10:24.528Z,101059.05
2018-12-30T02:12:58.130Z,101057.70
2018-12-30T02:15:29.466Z,101049.48
2018-12-30T02:18:01.299Z,101049.86
2018-12-30T02:20:34.691Z,101049.48
2018-12-30T02:23:05.976Z,101047.66
2018-12-30T02:25:36.973Z,101042.19
2018-12-30T02:28:07.940Z,101040.30
2018-12-30T02:30:38.922Z,101040.99
2018-12-30T02:33:09.893Z,101037.55
2018-12-30T02:35:41.166Z,101038.25
2018-12-30T02:38:13.425Z,101030.09
2018-12-30T02:40:47.967Z,101023.38
2018-12-30T02:43:19.428Z,101026.17
2018-12-30T02:45:50.392Z,101017.80
2018-12-30T02:48:21.853Z,101018.12
2018-12-30T02:50:53.618Z,101015.55
2018-12-30T02:53:25.424Z,101012.48
2018-12-30T02:55:56.453Z,101017.75
2018-12-30T02:58:27.384Z,101007.88
2018-12-30T03:01:01.684Z,101007.02
2018-12-30T03:03:33.174Z,101009.48
2018-12-30T03:06:05.033Z,100996.06
2018-12-30T03:08:36.227Z,100999.50
2018-12-30T03:11:07.593Z,100992.05
2018-12-30T03:13:38.728Z,100989.52
2018-12-30T03:16:09.744Z,100989.47
2018-12-30T03:18:40.747Z,100986.89
2018-12-30T03:21:12.182Z,100978.09
2018-12-30T03:23:44.143Z,100974.06
2018-12-30T03:26:15.115Z,100973.09
2018-12-30T03:28:46.924Z,100975.51
2018-12-30T03:31:19.272Z,100971.86
2018-12-30T03:33:51.348Z,100963.92
2018-12-30T03:36:24.913Z,100966.70
2018-12-30T03:38:58.188Z,100964.19
2018-12-30T03:41:31.239Z,100962.73
2018-12-30T03:44:03.745Z,100963.70
2018-12-30T03:46:37.893Z,100965.74
2018-12-30T03:49:09.097Z,100963.70
2018-12-30T03:51:40.437Z,100961.78
2018-12-30T03:54:12.680Z,100965.27
2018-12-30T03:56:45.954Z,100955.28
2018-12-30T03:59:17.336Z,100962.73
2018-12-30T04:01:48.885Z,100964.08
2018-12-30T04:04:22.075Z,100960.06
2018-12-30T04:06:54.151Z,100964.45
2018-12-30T04:09:26.954Z,100963.11
2018-12-30T04:12:01.539Z,100967.62
2018-12-30T04:14:33.269Z,100964.19
2018-12-30T04:17:04.929Z,100961.02
2018-12-30T04:19:36.621Z,100964.78
2018-12-30T04:22:16.641Z,100961.72
2018-12-30T04:24:42.077Z,100956.63
2018-12-30T04:27:13.589Z,100957.11
2018-12-30T04:29:45.461Z,100958.23
2018-12-30T04:32:16.960Z,100957.31
2018-12-30T04:34:48.476Z,100958.45
2018-12-30T04:37:20.365Z,100954.63
2018-12-30T04:39:51.885Z,100956.56
2018-12-30T04:42:23.469Z,100952.33
2018-12-30T04:44:55.174Z,100951.31
2018-12-30T04:47:26.149Z,100946.10
2018-12-30T04:49:57.118Z,100951.73
2018-12-30T04:52:28.052Z,100959.14
2018-12-30T04:54:59.030Z,100958.28
2018-12-30T04:57:29.980Z,100953.88
2018-12-30T05:00:00.944Z,100956.78
2018-12-30T05:02:31.937Z,100956.78
2018-12-30T05:05:02.864Z,100950.18
2018-12-30T05:07:33.816Z,100949.86
2018-12-30T05:10:05.721Z,100948.68
2018-12-30T05:12:36.688Z,100949.64
2018-12-30T05:15:07.725Z,100947.45
2018-12-30T05:17:38.779Z,100948.20
2018-12-30T05:20:09.750Z,100950.50
2018-12-30T05:22:40.712Z,100949.64
2018-12-30T05:25:11.652Z,100948.47
2018-12-30T05:27:42.687Z,100946.64
2018-12-30T05:30:13.604Z,100945.30
2018-12-30T05:32:44.565Z,100944.81
2018-12-30T05:35:15.513Z,100947.18
2018-12-30T05:37:46.544Z,100954.80
2018-12-30T05:40:17.502Z,100949.75
2018-12-30T05:42:48.550Z,100949.97
2018-12-30T05:45:19.465Z,100951.95
2018-12-30T05:47:50.855Z,100953.67
2018-12-30T05:50:22.974Z,100951.73
2018-12-30T05:52:54.495Z,100957.38
2018-12-30T05:55:25.482Z,100955.06
2018-12-30T05:57:56.739Z,100956.67
2018-12-30T06:00:27.672Z,100963.02
2018-12-30T06:02:59.998Z,100963.98
2018-12-30T06:05:30.982Z,100965.48
2018-12-30T06:08:01.927Z,100968.64
2018-12-30T06:10:32.857Z,100967.36
2018-12-30T06:13:03.774Z,100972.02
2018-12-30T06:15:34.731Z,100972.13
2018-12-30T06:18:05.738Z,100977.17
2018-12-30T06:20:36.785Z,100978.41
2018-12-30T06:23:08.898Z,100980.18
2018-12-30T06:25:39.811Z,100980.77
2018-12-30T06:28:10.739Z,100978.36
2018-12-30T06:30:41.660Z,100983.98
2018-12-30T06:33:12.702Z,100988.39
2018-12-30T06:35:43.652Z,100980.02
2018-12-30T06:38:14.595Z,100988.06
2018-12-30T06:40:45.698Z,100990.27
2018-12-30T06:43:16.696Z,100986.72
2018-12-30T06:45:47.716Z,100983.07
2018-12-30T06:48:18.736Z,100991.12
2018-12-30T06:50:49.758Z,100981.63
2018-12-30T06:53:20.727Z,100984.91
2018-12-30T06:55:51.647Z,100991.88
2018-12-30T06:58:22.667Z,100985.40
2018-12-30T07:00:53.600Z,100989.42
2018-12-30T07:03:26.120Z,100991.88
2018-12-30T07:05:57.132Z,100992.59
2018-12-30T07:08:28.068Z,100996.14
2018-12-30T07:10:59.010Z,100990.53
2018-12-30T07:13:29.980Z,100992.22
2018-12-30T07:16:00.928Z,100992.59
2018-12-30T07:18:31.902Z,100985.28
2018-12-30T07:21:02.810Z,100986.67
2018-12-30T07:23:33.761Z,100988.02
2018-12-30T07:26:04.838Z,100983.28
2018-12-30T07:28:35.821Z,100986.83
2018-12-30T07:31:07.391Z,100986.61
2018-12-30T07:33:38.305Z,100983.81
2018-12-30T07:36:09.394Z,100990.90
2018-12-30T07:38:40.384Z,100988.70
2018-12-30T07:41:12.172Z,100995.09
2018-12-30T07:43:43.323Z,100993.97
2018-12-30T07:46:15.021Z,100992.02
2018-12-30T07:48:48.765Z,100989.34
2018-12-30T07:51:23.472Z,100991.42
2018-12-30T07:53:54.548Z,100986.91
2018-12-30T07:56:25.570Z,100989.98
2018-12-30T07:58:57.007Z,100990.61
2018-12-30T08:01:27.939Z,100989.91
2018-12-30T08:03:58.875Z,100986.14
2018-12-30T08:06:29.836Z,100979.68
2018-12-30T08:09:00.841Z,100982.41
2018-12-30T08:11:32.680Z,100978.75
2018-12-30T08:14:03.641Z,100978.69
2018-12-30T08:16:34.775Z,100987.77
2018-12-30T08:19:05.779Z,100989.11
2018-12-30T08:21:36.935Z,100994.30
2018-12-30T08:24:09.003Z,100988.44
2018-12-30T08:26:40.013Z,101002.05
2018-12-30T08:29:11.002Z,100993.84
2018-12-30T08:31:41.968Z,100990.54
2018-12-30T08:34:12.987Z,100991.28
2018-12-30T08:36:44.071Z,100987.27
2018-12-30T08:39:15.070Z,100993.30
2018-12-30T08:41:46.033Z,100991.84
2018-12-30T08:44:17.072Z,100987.80
2018-12-30T08:46:48.004Z,100991.11
2018-12-30T08:49:19.038Z,100984.87
2018-12-30T08:51:52.638Z,100992.20
2018-12-30T08:54:23.724Z,100989.25
2018-12-30T08:56:54.686Z,100988.78
2018-12-30T08:59:25.684Z,100996.62
2018-12-30T09:01:56.640Z,100998.21
2018-12-30T09:04:27.563Z,100997.00
2018-12-30T09:06:58.493Z,101001.38
2018-12-30T09:09:29.527Z,101000.25
2018-12-30T09:12:00.457Z,101000.00
2018-12-30T09:14:31.402Z,101000.59
2018-12-30T09:17:02.353Z,100996.80
2018-12-30T09:19:33.395Z,100998.88
2018-12-30T09:22:04.433Z,101005.24
2018-12-30T09:24:35.335Z,101005.84
2018-12-30T09:27:06.304Z,101006.69
2018-12-30T09:29:37.262Z,101007.52
2018-12-30T09:32:08.227Z,101007.88
2018-12-30T09:34:39.244Z,101000.29
2018-12-30T09:37:10.200Z,101008.97
2018-12-30T09:39:41.198Z,101011.52
2018-12-30T09:42:12.976Z,101015.32
2018-12-30T09:44:45.741Z,101008.73
2018-12-30T09:47:17.157Z,101010.69
2018-12-30T09:49:48.591Z,101008.50
2018-12-30T09:52:20.034Z,101012.53
2018-12-30T09:54:51.439Z,101009.98
2018-12-30T09:57:23.239Z,101008.41
2018-12-30T09:59:54.800Z,101007.92
2018-12-30T10:02:25.786Z,101014.78
2018-12-30T10:04:57.014Z,101017.86
2018-12-30T10:07:28.007Z,101016.16
2018-12-30T10:09:59.146Z,101009.69
2018-12-30T10:12:33.511Z,101014.84
2018-12-30T10:15:09.613Z,101015.23
2018-12-30T10:17:37.480Z,101013.77
2018-12-30T10:20:10.274Z,101014.02
2018-12-30T10:22:41.924Z,101024.92
2018-12-30T10:25:15.011Z,101022.48
2018-12-30T10:27:47.166Z,101022.48
2018-12-30T10:30:18.805Z,101025.91
2018-12-30T10:32:50.088Z,101022.48
2018-12-30T10:35:21.521Z,101017.70
2018-12-30T10:37:53.181Z,101027.38
2018-12-30T10:40:24.471Z,101024.57
2018-12-30T10:42:55.984Z,101034.36
2018-12-30T10:45:27.684Z,101044.13
2018-12-30T10:47:59.451Z,101044.38
2018-12-30T10:50:30.788Z,101048.63
2018-12-30T10:53:02.097Z,101050.82
2018-12-30T10:55:33.730Z,101051.91
2018-12-30T10:58:07.839Z,101052.16
2018-12-30T11:00:38.861Z,101048.61
2018-12-30T11:03:11.132Z,101066.59
2018-12-30T11:05:42.114Z,101056.41
2018-12-30T11:08:13.147Z,101053.06
2018-12-30T11:10:44.254Z,101059.16
2018-12-30T11:13:15.244Z,101064.17
2018-12-30T11:15:46.300Z,101068.56
2018-12-30T11:18:17.285Z,101063.17
2018-12-30T11:20:48.229Z,101068.81
2018-12-30T11:23:19.243Z,101078.69
2018-12-30T11:25:50.208Z,101077.20
2018-12-30T11:28:21.666Z,101079.03
2018-12-30T11:30:52.771Z,101078.89
2018-12-30T11:33:23.702Z,101081.66
2018-12-30T11:35:54.686Z,101089.96
2018-12-30T11:38:27.570Z,101091.91
2018-12-30T11:40:58.544Z,101100.45
2018-12-30T11:43:29.454Z,101109.09
2018-12-30T11:46:00.460Z,101101.36
2018-12-30T11:48:31.395Z,101112.45
2018-12-30T11:51:02.448Z,101113.64
2018-12-30T11:53:33.455Z,101112.41
2018-12-30T11:56:04.500Z,101123.86
2018-12-30T11:58:35.574Z,101125.58
2018-12-30T12:01:06.790Z,101134.32
2018-12-30T12:03:37.852Z,101132.12
2018-12-30T12:06:08.855Z,101146.98
2018-12-30T12:08:39.814Z,101153.14
2018-12-30T12:11:10.816Z,101151.61
2018-12-30T12:13:41.777Z,101149.89
2018-12-30T12:16:12.767Z,101157.39
2018-12-30T12:18:43.761Z,101166.80
2018-12-30T12:21:16.104Z,101171.59
2018-12-30T12:23:47.084Z,101174.02
2018-12-30T12:26:18.031Z,101174.87
2018-12-30T12:28:49.038Z,101185.84
2018-12-30T12:31:19.958Z,101189.22
2018-12-30T12:33:50.872Z,101199.11
2018-12-30T12:36:22.422Z,101196.42
2018-12-30T12:38:53.342Z,101208.45
2018-12-30T12:41:24.302Z,101195.50
2018-12-30T12:43:55.215Z,101207.33
2018-12-30T12:46:26.147Z,101209.16
2018-12-30T12:48:57.168Z,101216.63
2018-12-30T12:51:28.038Z,101207.70
2018-12-30T12:53:58.980Z,101212.97
2018-12-30T12:56:29.966Z,101217.38
2018-12-30T12:59:00.931Z,101223.99
2018-12-30T13:01:31.887Z,101230.17
2018-12-30T13:04:02.893Z,101218.77
2018-12-30T13:06:33.834Z,101222.84
2018-12-30T13:09:06.649Z,101233.38
2018-12-30T13:11:37.646Z,101232.41
2018-12-30T13:14:08.697Z,101249.40
2018-12-30T13:16:39.668Z,101238.48
2018-12-30T13:19:10.712Z,101239.61
2018-12-30T13:21:41.741Z,101248.43
2018-12-30T13:24:13.441Z,101254.29
2018-12-30T13:26:44.352Z,101252.73
2018-12-30T13:29:16.655Z,101249.67
2018-12-30T13:31:47.609Z,101256.23
2018-12-30T13:34:19.064Z,101241.46
2018-12-30T13:36:50.141Z,101252.27
2018-12-30T13:39:21.370Z,101250.86
2018-12-30T13:41:52.365Z,101255.06
2018-12-30T13:44:23.278Z,101260.69
2018-12-30T13:46:54.220Z,101245.53
2018-12-30T13:49:25.273Z,101261.48
2018-12-30T13:51:56.312Z,101260.28
2018-12-30T13:54:30.472Z,101262.70
2018-12-30T13:57:01.594Z,101267.69
2018-12-30T13:59:32.975Z,101275.47
2018-12-30T14:02:04.155Z,101283.94
2018-12-30T14:04:35.191Z,101280.30
2018-12-30T14:07:06.135Z,101279.02
2018-12-30T14:09:37.105Z,101288.25
2018-12-30T14:12:08.133Z,101290.28
2018-12-30T14:14:39.109Z,101298.52
2018-12-30T14:17:10.117Z,101292.00
2018-12-30T14:19:41.409Z,101293.34
2018-12-30T14:22:18.379Z,101300.64
2018-12-30T14:24:55.344Z,101301.61
2018-12-30T14:27:21.983Z,101315.70
2018-12-30T14:29:52.985Z,101309.28
2018-12-30T14:32:23.947Z,101311.20
2018-12-30T14:34:55.233Z,101311.00
2018-12-30T14:37:26.192Z,101321.80
2018-12-30T14:39:57.207Z,101317.98
2018-12-30T14:42:28.139Z,101329.63
2018-12-30T14:44:59.160Z,101325.76
2018-12-30T14:47:30.235Z,101325.47
2018-12-30T14:50:01.316Z,101344.94
2018-12-30T14:52:32.287Z,101342.55
2018-12-30T14:55:04.129Z,101348.87
2018-12-30T14:57:37.535Z,101343.69
2018-12-30T15:00:09.137Z,101353.87
2018-12-30T15:02:40.265Z,101348.30
2018-12-30T15:05:11.208Z,101359.23
2018-12-30T15:07:42.263Z,101370.64
2018-12-30T15:10:13.262Z,101367.20
2018-12-30T15:12:44.431Z,101374.75
2018-12-30T15:15:15.423Z,101371.89
2018-12-30T15:17:46.366Z,101373.61
2018-12-30T15:20:17.313Z,101369.69
2018-12-30T15:22:48.265Z,101384.83
2018-12-30T15:25:19.229Z,101376.21
2018-12-30T15:27:50.137Z,101377.45
2018-12-30T15:30:21.149Z,101391.64
2018-12-30T15:32:52.062Z,101389.16
2018-12-30T15:35:23.012Z,101387.23
2018-12-30T15:37:53.970Z,101393.86
2018-12-30T15:40:24.886Z,101395.78
2018-12-30T15:42:55.801Z,101395.98
2018-12-30T15:45:26.763Z,101394.25
2018-12-30T15:47:57.843Z,101402.11
2018-12-30T15:50:28.838Z,101402.31
2018-12-30T15:53:01.101Z,101407.48
2018-12-30T15:55:32.323Z,101409.50
2018-12-30T15:58:03.579Z,101410.07
2018-12-30T16:00:34.575Z,101427.81
2018-12-30T16:03:05.530Z,101425.70
2018-12-30T16:05:36.491Z,101433.56
2018-12-30T16:08:07.410Z,101438.35
2018-12-30T16:10:38.418Z,101444.40
2018-12-30T16:13:09.525Z,101452.26
2018-12-30T16:15:40.479Z,101445.06
2018-12-30T16:18:11.399Z,101458.69
2018-12-30T16:20:42.324Z,101451.88
2018-12-30T16:23:13.295Z,101453.50
2018-12-30T16:25:44.225Z,101448.42
2018-12-30T16:28:15.223Z,101456.77
2018-12-30T16:30:46.178Z,101453.31
2018-12-30T16:33:17.103Z,101453.98
2018-12-30T16:35:48.037Z,101462.62
2018-12-30T16:38:18.987Z,101458.11
2018-12-30T16:40:49.951Z,101459.84
2018-12-30T16:43:21.216Z,101482.18
2018-12-30T16:45:52.180Z,101478.73
2018-12-30T16:48:23.133Z,101471.25
2018-12-30T16:50:54.122Z,101471.05
2018-12-30T16:53:25.056Z,101479.11
2018-12-30T16:55:56.032Z,101485.15
2018-12-30T16:58:27.003Z,101476.81
2018-12-30T17:00:57.995Z,101489.66
2018-12-30T17:03:29.115Z,101482.18
2018-12-30T17:06:00.330Z,101492.41
2018-12-30T17:08:31.345Z,101495.76
2018-12-30T17:11:02.400Z,101484.86
2018-12-30T17:13:33.427Z,101479.11
2018-12-30T17:16:04.411Z,101505.77
2018-12-30T17:18:35.498Z,101501.54
2018-12-30T17:21:06.495Z,101504.03
2018-12-30T17:23:37.520Z,101517.64
2018-12-30T17:26:08.592Z,101511.31
2018-12-30T17:28:39.556Z,101517.73
2018-12-30T17:31:10.554Z,101509.38
2018-12-30T17:33:41.559Z,101515.33
2018-12-30T17:36:12.486Z,101521.16
2018-12-30T17:38:43.514Z,101518.75
2018-12-30T17:41:14.458Z,101521.05
2018-12-30T17:43:48.565Z,101522.77
2018-12-30T17:46:23.420Z,101529.02
2018-12-30T17:48:54.379Z,101531.02
2018-12-30T17:51:31.778Z,101538.48
2018-12-30T17:54:02.808Z,101541.85
2018-12-30T17:56:34.142Z,101545.30
2018-12-30T17:59:05.153Z,101539.08
2018-12-30T18:01:36.171Z,101545.30
2018-12-30T18:04:14.223Z,101537.64
2018-12-30T18:06:45.222Z,101533.62
2018-12-30T18:09:17.256Z,101543.48
2018-12-30T18:11:50.824Z,101549.42
2018-12-30T18:14:21.752Z,101557.78
2018-12-30T18:16:56.631Z,101556.73
2018-12-30T18:19:30.637Z,101563.95
2018-12-30T18:22:02.060Z,101581.30
2018-12-30T18:24:33.099Z,101587.40
2018-12-30T18:27:07.174Z,101589.22
2018-12-30T18:29:53.919Z,101605.30
2018-12-30T18:32:22.279Z,101595.87
2018-12-30T18:34:53.369Z,101603.98
2018-12-30T18:37:24.288Z,101612.98
2018-12-30T18:39:55.280Z,101613.65
2018-12-30T18:42:26.198Z,101607.08
2018-12-30T18:44:57.139Z,101616.17
2018-12-30T18:47:28.060Z,101611.84
2018-12-30T18:49:58.982Z,101609.64
2018-12-30T18:52:29.944Z,101602.81
2018-12-30T18:55:00.902Z,101618.64
2018-12-30T18:57:31.896Z,101618.43
2018-12-30T19:00:02.852Z,101630.58
2018-12-30T19:02:33.986Z,101632.05
2018-12-30T19:05:05.147Z,101630.32
2018-12-30T19:07:36.141Z,101635.20
2018-12-30T19:10:07.614Z,101632.95
2018-12-30T19:12:38.631Z,101639.53
2018-12-30T19:15:09.538Z,101641.27
2018-12-30T19:17:40.569Z,101639.23
2018-12-30T19:20:12.881Z,101648.53
2018-12-30T19:22:43.823Z,101647.58
2018-12-30T19:25:14.908Z,101651.04
2018-12-30T19:27:45.908Z,101655.27
2018-12-30T19:30:16.847Z,101651.98
2018-12-30T19:32:47.938Z,101656.44
2018-12-30T19:35:24.049Z,101653.70
2018-12-30T19:37:56.733Z,101663.84
2018-12-30T19:40:27.793Z,101662.80
2018-12-30T19:42:58.892Z,101665.09
2018-12-30T19:45:30.192Z,101671.02
2018-12-30T19:48:01.206Z,101677.81
2018-12-30T19:50:32.146Z,101662.58
2018-12-30T19:53:03.091Z,101676.64
2018-12-30T19:55:34.132Z,101684.00
2018-12-30T19:58:05.175Z,101678.25
2018-12-30T20:00:36.367Z,101691.09
2018-12-30T20:03:07.355Z,101681.63
2018-12-30T20:05:38.308Z,101684.30
2018-12-30T20:08:09.199Z,101677.30
2018-12-30T20:10:58.781Z,101674.57
2018-12-30T20:13:31.075Z,101668.47
2018-12-30T20:16:16.270Z,101675.34
2018-12-30T20:18:51.977Z,101683.39
2018-12-30T20:21:23.568Z,101670.46
2018-12-30T20:23:54.630Z,101674.95
2018-12-30T20:26:29.824Z,101675.52
2018-12-30T20:28:58.315Z,101678.77
2018-12-30T20:31:29.357Z,101679.20
2018-12-30T20:34:00.325Z,101678.64
2018-12-30T20:36:31.332Z,101673.83
2018-12-30T20:39:02.273Z,101690.27
2018-12-30T20:41:34.364Z,101696.50
2018-12-30T20:44:05.407Z,101696.72
2018-12-30T20:46:36.333Z,101704.51
2018-12-30T20:49:07.386Z,101707.58
2018-12-30T20:51:38.381Z,101713.11
2018-12-30T20:54:09.446Z,101714.92
2018-12-30T20:56:40.431Z,101707.36
2018-12-30T20:59:11.387Z,101720.64
2018-12-30T21:01:42.306Z,101713.84
2018-12-30T21:04:32.466Z,101710.21
2018-12-30T21:07:05.732Z,101716.53
2018-12-30T21:09:42.213Z,101715.75
2018-12-30T21:12:20.352Z,101722.79
2018-12-30T21:15:01.968Z,101722.88
2018-12-30T21:17:39.381Z,101707.87
2018-12-30T21:20:10.364Z,101728.91
2018-12-30T21:22:41.317Z,101726.15
2018-12-30T21:25:12.302Z,101732.38
2018-12-30T21:27:43.291Z,101733.33
2018-12-30T21:30:14.182Z,101739.19
2018-12-30T21:32:54.210Z,101736.50
2018-12-30T21:35:25.107Z,101745.58
2018-12-30T21:37:56.075Z,101744.55
2018-12-30T21:40:26.982Z,101752.90
2018-12-30T21:42:57.976Z,101751.95
2018-12-30T21:45:28.979Z,101756.62
2018-12-30T21:47:59.962Z,101768.46
2018-12-30T21:50:30.882Z,101775.86
2018-12-30T21:53:01.860Z,101775.47
2018-12-30T21:55:32.782Z,101779.58
2018-12-30T21:58:03.703Z,101787.28
2018-12-30T22:00:34.627Z,101785.78
2018-12-30T22:03:05.536Z,101805.72
2018-12-30T22:05:36.457Z,101799.66
2018-12-30T22:08:07.395Z,101806.92
2018-12-30T22:10:38.316Z,101815.27
2018-12-30T22:13:13.932Z,101810.38
2018-12-30T22:15:47.733Z,101812.53
2018-12-30T22:18:24.491Z,101813.48
2018-12-30T22:20:55.520Z,101808.37
2018-12-30T22:23:26.438Z,101819.87
2018-12-30T22:26:01.025Z,101811.92
2018-12-30T22:28:33.579Z,101803.56
2018-12-30T22:31:04.483Z,101803.25
2018-12-30T22:33:35.407Z,101808.69
2018-12-30T22:36:06.368Z,101811.77
2018-12-30T22:38:37.261Z,101813.27
2018-12-30T22:41:08.221Z,101813.02
2018-12-30T22:43:39.168Z,101813.02
2018-12-30T22:46:10.096Z,101808.52
2018-12-30T22:48:41.047Z,101807.73
2018-12-30T22:51:11.989Z,101820.58
2018-12-30T22:53:42.970Z,101821.69
2018-12-30T22:56:13.911Z,101822.23
2018-12-30T22:58:44.847Z,101826.41
2018-12-30T23:01:22.294Z,101819.87
2018-12-30T23:03:53.218Z,101826.19
2018-12-30T23:06:24.194Z,101830.20
2018-12-30T23:08:56.244Z,101827.21
2018-12-30T23:11:27.199Z,101829.66
2018-12-30T23:13:58.172Z,101838.80
2018-12-30T23:16:29.057Z,101839.83
2018-12-30T23:18:59.986Z,101839.50
2018-12-30T23:21:30.882Z,101841.64
2018-12-30T23:24:01.838Z,101846.05
2018-12-30T23:26:32.845Z,101850.63
2018-12-30T23:29:03.811Z,101843.53
2018-12-30T23:31:34.836Z,101860.00
2018-12-30T23:34:05.855Z,101859.53
2018-12-30T23:36:36.850Z,101863.08
2018-12-30T23:39:08.758Z,101867.73
2018-12-30T23:41:39.704Z,101880.42
2018-12-30T23:44:10.620Z,101878.92
2018-12-30T23:46:41.532Z,101885.86
2018-12-30T23:49:12.461Z,101898.86
2018-12-30T23:51:43.410Z,101894.59
2018-12-30T23:54:14.346Z,101892.22
2018-12-30T23:56:45.286Z,101900.96
2018-12-30T23:59:16.228Z,101897.81
